createdAt,value
2023-01-31T00:00:37.622Z,96245.00
2023-01-31T00:06:24.749Z,96251.00
2023-01-31T00:11:53.444Z,96240.00
2023-01-31T00:17:23.884Z,96243.00
2023-01-31T00:22:51.738Z,96242.00
2023-01-31T00:28:19.763Z,96237.00
2023-01-31T00:33:49.448Z,96252.00
2023-01-31T00:39:17.431Z,96251.00
2023-01-31T00:44:46.129Z,96241.00
2023-01-31T00:50:16.209Z,96250.00
2023-01-31T00:55:44.734Z,96251.00
2023-01-31T01:01:17.946Z,96228.00
2023-01-31T01:06:47.708Z,96240.00
2023-01-31T01:12:15.645Z,96241.00
2023-01-31T01:17:43.583Z,96238.00
2023-01-31T01:23:11.351Z,96241.00
2023-01-31T01:28:39.157Z,96252.00
2023-01-31T01:34:13.258Z,96262.00
2023-01-31T01:39:41.358Z,96247.00
2023-01-31T01:45:16.580Z,96256.00
2023-01-31T01:50:49.633Z,96261.00
2023-01-31T01:56:24.394Z,96255.00
2023-01-31T02:01:55.779Z,96264.00
2023-01-31T02:07:23.692Z,96269.00
2023-01-31T02:12:52.328Z,96269.00
2023-01-31T02:18:22.544Z,96271.00
2023-01-31T02:23:57.152Z,96294.00
2023-01-31T02:29:53.170Z,96294.00
2023-01-31T02:35:50.583Z,96291.00
2023-01-31T02:41:38.170Z,96281.00
2023-01-31T02:47:18.488Z,96283.00
2023-01-31T02:53:06.713Z,96290.00
2023-01-31T02:58:38.885Z,96287.00
2023-01-31T03:04:12.013Z,96297.00
2023-01-31T03:10:11.793Z,96314.00
2023-01-31T03:16:13.406Z,96308.00
2023-01-31T03:22:11.863Z,96298.00
2023-01-31T03:27:45.629Z,96309.00
2023-01-31T03:33:33.320Z,96334.00
2023-01-31T03:39:25.828Z,96340.00
2023-01-31T03:45:15.930Z,96332.00
2023-01-31T03:50:51.973Z,96337.00
2023-01-31T03:56:32.568Z,96345.00
2023-01-31T04:02:04.578Z,96342.00
2023-01-31T04:07:32.741Z,96349.00
2023-01-31T04:13:02.626Z,96345.00
2023-01-31T04:18:30.504Z,96370.00
2023-01-31T04:23:58.304Z,96368.00
2023-01-31T04:29:26.153Z,96372.00
2023-01-31T04:34:54.038Z,96363.00
2023-01-31T04:40:22.078Z,96367.00
2023-01-31T04:45:50.203Z,96377.00
2023-01-31T04:51:18.220Z,96383.00
2023-01-31T04:56:46.625Z,96389.00
2023-01-31T05:02:15.255Z,96398.00
2023-01-31T05:07:45.139Z,96407.00
2023-01-31T05:13:14.680Z,96400.00
2023-01-31T05:18:42.547Z,96405.00
2023-01-31T05:24:10.470Z,96405.00
2023-01-31T05:29:38.268Z,96415.00
2023-01-31T05:35:06.954Z,96407.00
2023-01-31T05:40:34.712Z,96418.00
2023-01-31T05:46:02.597Z,96415.00
2023-01-31T05:51:31.031Z,96431.00
2023-01-31T05:56:58.866Z,96440.00
2023-01-31T06:02:26.779Z,96438.00
2023-01-31T06:07:54.594Z,96434.00
2023-01-31T06:13:22.355Z,96431.00
2023-01-31T06:18:50.227Z,96424.00
2023-01-31T06:24:18.122Z,96427.00
2023-01-31T06:29:45.963Z,96415.00
2023-01-31T06:35:14.084Z,96413.00
2023-01-31T06:40:41.957Z,96433.00
2023-01-31T06:46:09.906Z,96434.00
2023-01-31T06:51:37.707Z,96447.00
2023-01-31T06:57:06.278Z,96446.00
2023-01-31T07:02:35.148Z,96449.00
2023-01-31T07:08:03.409Z,96458.00
2023-01-31T07:13:32.430Z,96457.00
2023-01-31T07:19:00.579Z,96455.00
2023-01-31T07:24:28.540Z,96461.00
2023-01-31T07:29:56.423Z,96463.00
2023-01-31T07:35:24.358Z,96465.00
2023-01-31T07:40:52.255Z,96462.00
2023-01-31T07:46:20.367Z,96451.00
2023-01-31T07:51:48.465Z,96462.00
2023-01-31T07:57:19.544Z,96465.00
2023-01-31T08:03:06.663Z,96464.00
2023-01-31T08:08:35.419Z,96456.00
2023-01-31T08:14:03.506Z,96459.00
2023-01-31T08:19:35.416Z,96474.00
2023-01-31T08:25:03.354Z,96453.00
2023-01-31T08:30:31.655Z,96467.00
2023-01-31T08:36:22.695Z,96490.00
2023-01-31T08:41:50.611Z,96480.00
2023-01-31T08:47:18.523Z,96480.00
2023-01-31T08:52:46.598Z,96473.00
2023-01-31T08:58:14.434Z,96467.00
2023-01-31T09:03:45.150Z,96464.00
2023-01-31T09:09:13.322Z,96477.00
2023-01-31T09:14:41.203Z,96477.00
2023-01-31T09:20:10.337Z,96471.00
2023-01-31T09:25:47.244Z,96450.00
2023-01-31T09:31:18.919Z,96459.00
2023-01-31T09:36:46.917Z,96475.00
2023-01-31T09:42:35.786Z,96476.00
2023-01-31T09:48:07.617Z,96474.00
2023-01-31T09:53:38.601Z,96471.00
2023-01-31T09:59:36.148Z,96495.00
2023-01-31T10:05:47.696Z,96495.00
2023-01-31T10:11:30.750Z,96490.00
2023-01-31T10:17:26.612Z,96469.00
2023-01-31T10:23:07.322Z,96451.00
2023-01-31T10:28:52.021Z,96450.00
2023-01-31T10:34:50.697Z,96434.00
2023-01-31T10:40:23.481Z,96440.00
2023-01-31T10:45:51.486Z,96439.00
2023-01-31T10:51:47.568Z,96444.00
2023-01-31T10:57:17.220Z,96430.00
2023-01-31T11:02:45.221Z,96421.00
2023-01-31T11:08:41.776Z,96418.00
2023-01-31T11:14:19.084Z,96410.00
2023-01-31T11:19:51.365Z,96402.00
2023-01-31T11:25:23.127Z,96397.00
2023-01-31T11:30:55.052Z,96375.00
2023-01-31T11:36:24.340Z,96367.00
2023-01-31T11:41:52.769Z,96352.00
2023-01-31T11:47:47.048Z,96339.00
2023-01-31T11:53:37.756Z,96352.00
2023-01-31T11:59:09.813Z,96338.00
2023-01-31T12:04:42.690Z,96315.00
2023-01-31T12:10:42.272Z,96314.00
2023-01-31T12:16:12.233Z,96303.00
2023-01-31T12:22:19.088Z,96276.00
2023-01-31T12:28:23.307Z,96293.00
2023-01-31T12:34:47.148Z,96303.00
2023-01-31T12:40:40.819Z,96299.00
2023-01-31T12:46:11.587Z,96286.00
2023-01-31T12:52:03.989Z,96288.00
2023-01-31T12:58:04.800Z,96272.00
2023-01-31T13:04:04.927Z,96271.00
2023-01-31T13:09:35.940Z,96274.00
2023-01-31T13:15:43.545Z,96258.00
2023-01-31T13:21:18.094Z,96248.00
2023-01-31T13:26:57.075Z,96245.00
2023-01-31T13:32:32.566Z,96241.00
2023-01-31T13:38:07.559Z,96205.00
2023-01-31T13:43:35.393Z,96188.00
2023-01-31T13:49:29.288Z,96201.00
2023-01-31T13:55:05.967Z,96211.00
2023-01-31T14:00:50.903Z,96209.00
2023-01-31T14:06:18.647Z,96221.00
2023-01-31T14:11:46.468Z,96213.00
2023-01-31T14:17:29.751Z,96201.00
2023-01-31T14:23:47.041Z,96202.00
2023-01-31T14:29:20.882Z,96215.00
2023-01-31T14:34:49.925Z,96190.00
2023-01-31T14:40:24.042Z,96189.00
2023-01-31T14:46:26.251Z,96192.00
2023-01-31T14:52:26.275Z,96181.00
2023-01-31T14:57:59.562Z,96185.00
2023-01-31T15:03:59.397Z,96168.00
2023-01-31T15:09:38.703Z,96181.00
2023-01-31T15:15:35.761Z,96195.00
2023-01-31T15:21:07.532Z,96180.00
2023-01-31T15:26:35.910Z,96176.00
2023-01-31T15:32:23.031Z,96163.00
2023-01-31T15:38:27.203Z,96190.00
2023-01-31T15:43:57.113Z,96190.00
2023-01-31T15:49:42.715Z,96165.00
2023-01-31T15:55:16.967Z,96167.00
2023-01-31T16:00:44.829Z,96144.00
2023-01-31T16:06:30.629Z,96156.00
2023-01-31T16:12:01.270Z,96163.00
2023-01-31T16:17:29.985Z,96159.00
2023-01-31T16:23:00.360Z,96186.00
2023-01-31T16:28:37.318Z,96181.00
2023-01-31T16:34:25.391Z,96207.00
2023-01-31T16:40:30.301Z,96183.00
2023-01-31T16:46:06.371Z,96196.00
2023-01-31T16:51:42.924Z,96190.00
2023-01-31T16:57:38.397Z,96208.00
2023-01-31T17:03:19.470Z,96215.00
2023-01-31T17:08:47.838Z,96208.00
2023-01-31T17:14:16.661Z,96210.00
2023-01-31T17:19:44.583Z,96195.00
2023-01-31T17:25:22.737Z,96208.00
2023-01-31T17:30:51.873Z,96206.00
2023-01-31T17:36:19.639Z,96208.00
2023-01-31T17:41:47.520Z,96207.00
2023-01-31T17:47:18.477Z,96196.00
2023-01-31T17:52:46.656Z,96199.00
2023-01-31T17:58:18.207Z,96213.00
2023-01-31T18:03:46.127Z,96206.00
2023-01-31T18:09:16.605Z,96219.00
2023-01-31T18:14:45.457Z,96233.00
2023-01-31T18:20:14.280Z,96237.00
2023-01-31T18:25:44.319Z,96228.00
2023-01-31T18:31:15.785Z,96215.00
2023-01-31T18:36:44.242Z,96214.00
2023-01-31T18:42:13.095Z,96234.00
2023-01-31T18:47:40.890Z,96242.00
2023-01-31T18:53:08.883Z,96243.00
2023-01-31T18:58:39.381Z,96241.00
2023-01-31T19:04:07.433Z,96233.00
2023-01-31T19:09:35.553Z,96246.00
2023-01-31T19:15:03.626Z,96241.00
2023-01-31T19:20:31.455Z,96234.00
2023-01-31T19:26:02.105Z,96223.00
2023-01-31T19:31:32.375Z,96236.00
2023-01-31T19:37:00.316Z,96232.00
2023-01-31T19:42:32.264Z,96221.00
2023-01-31T19:48:02.133Z,96216.00
2023-01-31T19:53:30.424Z,96216.00
2023-01-31T19:59:00.451Z,96205.00
2023-01-31T20:04:30.828Z,96196.00
2023-01-31T20:09:59.784Z,96199.00
2023-01-31T20:15:30.027Z,96223.00
2023-01-31T20:20:58.206Z,96217.00
2023-01-31T20:26:30.491Z,96215.00
2023-01-31T20:31:58.613Z,96215.00
2023-01-31T20:37:28.925Z,96229.00
2023-01-31T20:42:57.277Z,96207.00
2023-01-31T20:48:25.421Z,96246.00
2023-01-31T20:53:53.420Z,96219.00
2023-01-31T20:59:24.601Z,96209.00
2023-01-31T21:04:52.427Z,96222.00
2023-01-31T21:10:20.617Z,96240.00
2023-01-31T21:15:57.867Z,96230.00
2023-01-31T21:21:26.312Z,96193.00
2023-01-31T21:26:54.280Z,96213.00
2023-01-31T21:32:22.611Z,96193.00
2023-01-31T21:37:51.493Z,96194.00
2023-01-31T21:43:20.323Z,96202.00
2023-01-31T21:48:48.426Z,96215.00
2023-01-31T21:54:17.377Z,96198.00
2023-01-31T21:59:46.911Z,96188.00
2023-01-31T22:05:14.953Z,96180.00
2023-01-31T22:10:43.879Z,96138.00
2023-01-31T22:16:13.499Z,96156.00
2023-01-31T22:21:43.314Z,96128.00
2023-01-31T22:27:11.179Z,96139.00
2023-01-31T22:32:39.115Z,96126.00
2023-01-31T22:38:06.936Z,96141.00
2023-01-31T22:43:42.427Z,96156.00
2023-01-31T22:49:10.338Z,96129.00
2023-01-31T22:54:38.185Z,96166.00
2023-01-31T23:00:07.261Z,96163.00
2023-01-31T23:05:39.882Z,96158.00
2023-01-31T23:11:11.112Z,96160.00
2023-01-31T23:16:57.830Z,96167.00
2023-01-31T23:22:25.686Z,96163.00
2023-01-31T23:27:56.930Z,96183.00
2023-01-31T23:33:24.833Z,96183.00
2023-01-31T23:38:52.628Z,96184.00
2023-01-31T23:44:20.471Z,96169.00
2023-01-31T23:49:48.177Z,96195.00
2023-01-31T23:55:18.313Z,96154.00
